createdAt,value
2023-02-24T00:02:20.468Z,62.44
2023-02-24T00:04:52.099Z,63.47
2023-02-24T00:07:19.013Z,63.75
2023-02-24T00:09:46.610Z,64.48
2023-02-24T00:12:31.044Z,64.12
2023-02-24T00:14:58.010Z,63.96
2023-02-24T00:17:28.180Z,62.58
2023-02-24T00:19:56.901Z,62.63
2023-02-24T00:22:23.895Z,61.21
2023-02-24T00:24:50.851Z,61.27
2023-02-24T00:27:18.356Z,61.48
2023-02-24T00:29:47.807Z,61.88
2023-02-24T00:32:27.010Z,60.70
2023-02-24T00:34:54.541Z,62.25
2023-02-24T00:37:24.300Z,61.56
2023-02-24T00:39:58.813Z,62.44
2023-02-24T00:42:26.011Z,63.34
2023-02-24T00:44:54.494Z,63.58
2023-02-24T00:47:28.728Z,63.34
2023-02-24T00:49:55.752Z,63.21
2023-02-24T00:52:37.119Z,62.63
2023-02-24T00:55:14.499Z,62.33
2023-02-24T00:57:42.067Z,64.65
2023-02-24T01:00:17.037Z,63.52
2023-02-24T01:02:48.269Z,61.79
2023-02-24T01:05:16.514Z,62.41
2023-02-24T01:07:43.900Z,62.27
2023-02-24T01:10:14.927Z,62.42
2023-02-24T01:12:59.566Z,61.70
2023-02-24T01:15:27.121Z,61.49
2023-02-24T01:17:56.485Z,61.00
2023-02-24T01:20:24.122Z,60.28
2023-02-24T01:22:54.808Z,60.87
2023-02-24T01:25:22.936Z,61.54
2023-02-24T01:27:50.982Z,61.50
2023-02-24T01:30:25.210Z,60.50
2023-02-24T01:32:52.316Z,61.62
2023-02-24T01:35:22.163Z,61.41
2023-02-24T01:37:49.628Z,60.60
2023-02-24T01:40:21.641Z,60.21
2023-02-24T01:42:49.814Z,60.37
2023-02-24T01:45:20.099Z,59.73
2023-02-24T01:48:01.971Z,59.79
2023-02-24T01:50:29.379Z,60.34
2023-02-24T01:52:59.302Z,61.11
2023-02-24T01:55:31.901Z,60.11
2023-02-24T01:58:01.152Z,60.30
2023-02-24T02:00:39.475Z,61.36
2023-02-24T02:03:13.597Z,61.55
2023-02-24T02:05:41.584Z,60.72
2023-02-24T02:08:09.535Z,62.32
2023-02-24T02:10:39.559Z,62.17
2023-02-24T02:13:07.039Z,62.18
2023-02-24T02:15:40.376Z,62.41
2023-02-24T02:18:14.765Z,62.33
2023-02-24T02:20:44.499Z,62.37
2023-02-24T02:23:24.066Z,61.95
2023-02-24T02:26:10.246Z,62.43
2023-02-24T02:28:37.219Z,61.71
2023-02-24T02:31:17.837Z,62.71
2023-02-24T02:33:55.508Z,64.53
2023-02-24T02:36:26.124Z,63.43
2023-02-24T02:38:58.894Z,62.64
2023-02-24T02:42:05.168Z,63.62
2023-02-24T02:44:39.961Z,63.55
2023-02-24T02:47:18.935Z,62.24
2023-02-24T02:49:50.150Z,61.06
2023-02-24T02:52:37.009Z,61.75
2023-02-24T02:55:08.576Z,61.61
2023-02-24T02:57:38.315Z,61.94
2023-02-24T03:00:42.467Z,62.04
2023-02-24T03:03:13.008Z,64.26
2023-02-24T03:05:47.304Z,64.09
2023-02-24T03:08:16.212Z,62.27
2023-02-24T03:10:45.713Z,62.23
2023-02-24T03:13:13.935Z,62.97
2023-02-24T03:15:45.141Z,62.62
2023-02-24T03:18:15.615Z,64.70
2023-02-24T03:20:49.323Z,64.30
2023-02-24T03:23:18.394Z,65.37
2023-02-24T03:25:52.709Z,65.52
2023-02-24T03:28:26.782Z,65.15
2023-02-24T03:31:00.661Z,64.25
2023-02-24T03:33:51.554Z,65.98
2023-02-24T03:36:18.977Z,65.19
2023-02-24T03:38:50.152Z,66.23
2023-02-24T03:41:17.781Z,67.01
2023-02-24T03:43:58.202Z,65.30
2023-02-24T03:46:25.881Z,67.41
2023-02-24T03:48:55.794Z,66.94
2023-02-24T03:51:31.989Z,66.55
2023-02-24T03:54:02.229Z,65.68
2023-02-24T03:56:58.229Z,66.58
2023-02-24T03:59:40.465Z,65.54
2023-02-24T04:02:14.701Z,65.25
2023-02-24T04:04:48.182Z,65.37
2023-02-24T04:07:15.082Z,63.93
2023-02-24T04:09:57.501Z,66.05
2023-02-24T04:12:30.919Z,66.89
2023-02-24T04:15:00.937Z,66.10
2023-02-24T04:17:31.930Z,65.44
2023-02-24T04:20:01.704Z,66.56
2023-02-24T04:22:30.078Z,67.18
2023-02-24T04:25:13.898Z,67.27
2023-02-24T04:27:41.739Z,65.46
2023-02-24T04:30:12.437Z,64.57
2023-02-24T04:32:43.009Z,64.47
2023-02-24T04:35:13.376Z,65.30
2023-02-24T04:37:40.895Z,66.21
2023-02-24T04:40:11.275Z,67.98
2023-02-24T04:42:47.174Z,66.09
2023-02-24T04:45:16.903Z,65.95
2023-02-24T04:47:46.363Z,64.60
2023-02-24T04:50:23.283Z,64.21
2023-02-24T04:52:51.299Z,64.24
2023-02-24T04:55:19.827Z,63.33
2023-02-24T04:57:50.270Z,64.14
2023-02-24T05:00:25.689Z,64.89
2023-02-24T05:02:54.526Z,66.63
2023-02-24T05:05:25.812Z,67.84
2023-02-24T05:07:53.957Z,67.32
2023-02-24T05:10:22.854Z,67.16
2023-02-24T05:12:50.189Z,68.13
2023-02-24T05:15:33.416Z,68.27
2023-02-24T05:18:01.254Z,68.69
2023-02-24T05:20:47.718Z,69.42
2023-02-24T05:23:17.117Z,68.04
2023-02-24T05:25:45.532Z,68.72
2023-02-24T05:28:19.081Z,70.71
2023-02-24T05:30:46.725Z,71.38
2023-02-24T05:33:14.335Z,69.58
2023-02-24T05:35:46.452Z,70.81
2023-02-24T05:38:14.261Z,71.13
2023-02-24T05:40:46.881Z,68.68
2023-02-24T05:43:19.507Z,69.26
2023-02-24T05:45:48.505Z,72.51
2023-02-24T05:48:17.109Z,72.99
2023-02-24T05:51:05.148Z,70.81
2023-02-24T05:53:32.413Z,72.67
2023-02-24T05:56:06.961Z,73.23
2023-02-24T05:58:34.297Z,73.26
2023-02-24T06:01:07.201Z,73.30
2023-02-24T06:03:35.817Z,73.81
2023-02-24T06:06:10.446Z,71.56
2023-02-24T06:08:42.789Z,73.32
2023-02-24T06:11:10.987Z,75.82
2023-02-24T06:13:48.069Z,76.63
2023-02-24T06:16:19.102Z,81.42
2023-02-24T06:18:50.439Z,80.57
2023-02-24T06:21:18.116Z,79.23
2023-02-24T06:23:45.808Z,78.01
2023-02-24T06:26:19.709Z,79.66
2023-02-24T06:28:49.394Z,82.67
2023-02-24T06:31:17.955Z,81.62
2023-02-24T06:33:45.716Z,84.09
2023-02-24T06:36:17.086Z,80.29
2023-02-24T06:38:44.395Z,85.37
2023-02-24T06:41:30.152Z,86.04
2023-02-24T06:43:57.813Z,84.20
2023-02-24T06:46:25.691Z,85.76
2023-02-24T06:48:53.115Z,84.83
2023-02-24T06:51:20.929Z,88.75
2023-02-24T06:53:49.576Z,86.33
2023-02-24T06:56:20.070Z,85.32
2023-02-24T06:58:49.017Z,85.14
2023-02-24T07:01:18.425Z,84.89
2023-02-24T07:04:05.139Z,86.50
2023-02-24T07:06:34.534Z,85.13
2023-02-24T07:09:09.165Z,85.65
2023-02-24T07:11:37.740Z,87.76
2023-02-24T07:14:08.346Z,86.20
2023-02-24T07:16:36.172Z,84.35
2023-02-24T07:19:11.300Z,84.20
2023-02-24T07:21:43.510Z,85.91
2023-02-24T07:24:13.706Z,85.08
2023-02-24T07:26:43.003Z,88.30
2023-02-24T07:29:12.073Z,87.91
2023-02-24T07:31:40.827Z,86.93
2023-02-24T07:34:07.786Z,88.25
2023-02-24T07:36:49.449Z,90.22
2023-02-24T07:39:17.313Z,88.68
2023-02-24T07:41:49.831Z,93.91
2023-02-24T07:44:19.975Z,92.23
2023-02-24T07:46:49.224Z,94.67
2023-02-24T07:49:20.278Z,92.78
2023-02-24T07:51:54.072Z,92.20
2023-02-24T07:54:21.675Z,90.56
2023-02-24T07:56:57.158Z,92.29
2023-02-24T07:59:27.091Z,91.55
2023-02-24T08:01:56.215Z,89.46
2023-02-24T08:05:03.121Z,91.88
2023-02-24T08:07:31.130Z,89.96
2023-02-24T08:10:10.881Z,89.24
2023-02-24T08:12:42.749Z,90.10
2023-02-24T08:15:17.711Z,90.54
2023-02-24T08:17:47.633Z,90.08
2023-02-24T08:20:15.685Z,91.48
2023-02-24T08:22:52.381Z,90.24
2023-02-24T08:25:25.412Z,91.41
2023-02-24T08:28:08.874Z,91.57
2023-02-24T08:30:40.681Z,92.74
2023-02-24T08:33:22.525Z,93.07
2023-02-24T08:35:53.482Z,93.22
2023-02-24T08:38:40.304Z,94.04
2023-02-24T08:41:11.777Z,94.10
2023-02-24T08:43:39.930Z,93.64
2023-02-24T08:46:18.757Z,95.83
2023-02-24T08:48:48.009Z,92.53
2023-02-24T08:51:18.215Z,97.32
2023-02-24T08:53:47.287Z,96.56
2023-02-24T08:56:15.321Z,93.75
2023-02-24T08:58:51.820Z,96.26
2023-02-24T09:01:37.410Z,97.74
2023-02-24T09:04:06.689Z,96.56
2023-02-24T09:07:11.825Z,95.00
2023-02-24T09:09:42.578Z,97.11
2023-02-24T09:12:24.825Z,97.76
2023-02-24T09:14:56.000Z,97.32
2023-02-24T09:17:50.471Z,95.09
2023-02-24T09:20:28.543Z,97.78
2023-02-24T09:22:58.099Z,97.55
2023-02-24T09:25:41.126Z,96.64
2023-02-24T09:28:17.770Z,95.99
2023-02-24T09:31:07.841Z,95.39
2023-02-24T09:33:39.902Z,96.75
2023-02-24T09:36:30.421Z,93.10
2023-02-24T09:39:01.328Z,95.34
2023-02-24T09:41:57.052Z,94.47
2023-02-24T09:44:37.356Z,94.03
2023-02-24T09:47:09.687Z,94.50
2023-02-24T09:49:46.791Z,96.32
2023-02-24T09:52:18.677Z,98.56
2023-02-24T09:55:05.966Z,98.04
2023-02-24T09:57:57.472Z,94.46
2023-02-24T10:00:36.745Z,96.15
2023-02-24T10:03:19.962Z,97.38
2023-02-24T10:06:01.169Z,98.37
2023-02-24T10:08:33.332Z,96.92
2023-02-24T10:11:07.385Z,100.00
2023-02-24T10:13:40.323Z,94.90
2023-02-24T10:16:10.801Z,96.17
2023-02-24T10:18:43.695Z,96.47
2023-02-24T10:21:16.237Z,99.26
2023-02-24T10:23:45.718Z,100.00
2023-02-24T10:26:33.610Z,98.24
2023-02-24T10:29:09.212Z,95.50
2023-02-24T10:31:46.594Z,94.80
2023-02-24T10:34:26.602Z,95.00
2023-02-24T10:36:53.932Z,95.39
2023-02-24T10:39:33.543Z,94.45
2023-02-24T10:42:22.664Z,93.73
2023-02-24T10:45:01.379Z,94.07
2023-02-24T10:47:33.889Z,96.94
2023-02-24T10:50:02.050Z,92.77
2023-02-24T10:52:51.445Z,96.85
2023-02-24T10:55:43.121Z,96.10
2023-02-24T10:58:28.197Z,95.15
2023-02-24T11:01:07.848Z,92.40
2023-02-24T11:04:12.246Z,94.24
2023-02-24T11:06:53.676Z,94.06
2023-02-24T11:09:36.179Z,91.33
2023-02-24T11:12:32.908Z,96.82
2023-02-24T11:15:37.220Z,96.45
2023-02-24T11:18:07.085Z,92.09
2023-02-24T11:20:56.002Z,93.41
2023-02-24T11:23:25.307Z,96.41
2023-02-24T11:25:54.633Z,92.58
2023-02-24T11:28:58.692Z,94.93
2023-02-24T11:31:36.690Z,94.26
2023-02-24T11:34:15.700Z,96.04
2023-02-24T11:36:54.906Z,92.75
2023-02-24T11:39:34.448Z,93.12
2023-02-24T11:42:05.434Z,96.07
2023-02-24T11:45:07.204Z,94.71
2023-02-24T11:47:43.475Z,90.61
2023-02-24T11:50:28.606Z,94.56
2023-02-24T11:53:07.905Z,92.02
2023-02-24T11:55:39.524Z,97.01
2023-02-24T12:02:07.416Z,92.74
2023-02-24T12:04:34.608Z,91.70
2023-02-24T12:07:10.270Z,95.45
2023-02-24T12:09:42.664Z,95.41
2023-02-24T12:12:14.484Z,95.44
2023-02-24T12:14:46.306Z,93.85
2023-02-24T12:17:18.822Z,92.89
2023-02-24T12:19:52.317Z,92.32
2023-02-24T12:22:20.780Z,92.39
2023-02-24T12:24:51.832Z,93.88
2023-02-24T12:27:40.676Z,91.17
2023-02-24T12:30:34.768Z,89.44
2023-02-24T12:33:16.455Z,88.05
2023-02-24T12:36:03.358Z,91.36
2023-02-24T12:38:42.457Z,99.80
2023-02-24T12:41:21.646Z,97.06
2023-02-24T12:43:49.137Z,96.23
2023-02-24T12:46:31.340Z,94.63
2023-02-24T12:49:12.440Z,93.77
2023-02-24T12:51:46.553Z,96.69
2023-02-24T12:54:16.949Z,95.74
2023-02-24T12:56:53.126Z,95.21
2023-02-24T12:59:34.468Z,92.23
2023-02-24T13:02:12.389Z,87.63
2023-02-24T13:04:40.554Z,91.78
2023-02-24T13:07:50.622Z,93.75
2023-02-24T13:10:38.547Z,88.74
2023-02-24T13:13:20.373Z,86.05
2023-02-24T13:16:07.223Z,84.27
2023-02-24T13:18:40.163Z,85.36
2023-02-24T13:21:09.618Z,84.59
2023-02-24T13:23:41.037Z,85.83
2023-02-24T13:26:10.594Z,84.79
2023-02-24T13:28:38.817Z,86.03
2023-02-24T13:31:08.828Z,88.32
2023-02-24T13:34:14.684Z,91.80
2023-02-24T13:36:51.119Z,90.02
2023-02-24T13:39:38.502Z,90.06
2023-02-24T13:42:21.897Z,85.88
2023-02-24T13:45:09.655Z,85.36
2023-02-24T13:48:07.007Z,88.35
2023-02-24T13:51:03.599Z,86.39
2023-02-24T13:53:37.021Z,90.71
2023-02-24T13:56:11.028Z,87.40
2023-02-24T13:59:01.272Z,96.80
2023-02-24T14:01:30.596Z,98.40
2023-02-24T14:04:03.656Z,98.69
2023-02-24T14:06:38.626Z,96.45
2023-02-24T14:09:06.783Z,93.32
2023-02-24T14:11:36.492Z,92.34
2023-02-24T14:14:04.327Z,90.02
2023-02-24T14:16:40.118Z,88.39
2023-02-24T14:19:12.672Z,89.26
2023-02-24T14:21:47.066Z,86.18
2023-02-24T14:24:15.418Z,86.24
2023-02-24T14:26:46.504Z,86.58
2023-02-24T14:29:15.193Z,87.71
2023-02-24T14:31:42.904Z,91.52
2023-02-24T14:34:16.418Z,89.74
2023-02-24T14:36:45.688Z,87.78
2023-02-24T14:39:20.027Z,86.92
2023-02-24T14:41:48.164Z,85.05
2023-02-24T14:44:19.386Z,83.49
2023-02-24T14:46:56.861Z,85.31
2023-02-24T14:49:26.100Z,85.61
2023-02-24T14:52:18.254Z,86.42
2023-02-24T14:54:52.211Z,88.65
2023-02-24T14:57:22.816Z,83.99
2023-02-24T14:59:53.150Z,84.74
2023-02-24T15:02:24.693Z,85.15
2023-02-24T15:04:54.209Z,83.71
2023-02-24T15:07:29.156Z,82.74
2023-02-24T15:09:57.101Z,88.67
2023-02-24T15:12:29.326Z,86.11
2023-02-24T15:15:08.340Z,89.12
2023-02-24T15:17:40.381Z,88.27
2023-02-24T15:20:29.586Z,89.48
2023-02-24T15:22:56.458Z,88.03
2023-02-24T15:25:43.959Z,88.51
2023-02-24T15:28:39.654Z,86.96
2023-02-24T15:31:18.014Z,89.38
2023-02-24T15:33:46.248Z,91.75
2023-02-24T15:36:19.096Z,95.22
2023-02-24T15:38:47.123Z,95.38
2023-02-24T15:41:15.269Z,94.33
2023-02-24T15:43:56.591Z,90.38
2023-02-24T15:46:26.738Z,91.50
2023-02-24T15:48:54.733Z,87.54
2023-02-24T15:51:25.659Z,83.94
2023-02-24T15:53:52.932Z,87.80
2023-02-24T15:56:20.808Z,91.26
2023-02-24T15:58:47.849Z,92.35
2023-02-24T16:01:27.778Z,90.92
2023-02-24T16:03:55.238Z,90.84
2023-02-24T16:06:30.835Z,92.00
2023-02-24T16:08:58.512Z,89.58
2023-02-24T16:11:29.066Z,88.59
2023-02-24T16:13:59.880Z,89.87
2023-02-24T16:16:27.747Z,87.46
2023-02-24T16:18:54.785Z,87.52
2023-02-24T16:21:23.263Z,84.83
2023-02-24T16:23:51.272Z,93.06
2023-02-24T16:26:21.254Z,88.55
2023-02-24T16:28:52.191Z,90.65
2023-02-24T16:31:19.825Z,93.41
2023-02-24T16:33:54.818Z,94.37
2023-02-24T16:36:23.871Z,92.67
2023-02-24T16:39:05.180Z,96.96
2023-02-24T16:41:32.253Z,96.28
2023-02-24T16:44:29.122Z,98.17
2023-02-24T16:46:55.742Z,90.88
2023-02-24T16:49:22.776Z,95.01
2023-02-24T16:51:51.531Z,96.46
2023-02-24T16:54:22.060Z,93.45
2023-02-24T16:56:49.799Z,89.56
2023-02-24T16:59:17.835Z,90.62
2023-02-24T17:01:45.370Z,93.51
2023-02-24T17:04:14.546Z,91.10
2023-02-24T17:06:46.368Z,90.43
2023-02-24T17:09:15.773Z,89.67
2023-02-24T17:11:43.805Z,85.11
2023-02-24T17:14:17.616Z,86.77
2023-02-24T17:16:45.058Z,87.35
2023-02-24T17:19:12.429Z,85.30
2023-02-24T17:21:43.118Z,84.44
2023-02-24T17:24:17.203Z,82.57
2023-02-24T17:26:44.739Z,81.01
2023-02-24T17:29:18.819Z,78.99
2023-02-24T17:31:46.594Z,79.11
2023-02-24T17:34:14.478Z,76.12
2023-02-24T17:36:42.189Z,75.29
2023-02-24T17:39:09.067Z,75.97
2023-02-24T17:41:36.402Z,76.23
2023-02-24T17:44:04.359Z,75.28
2023-02-24T17:46:32.476Z,72.40
2023-02-24T17:49:00.516Z,73.85
2023-02-24T17:51:41.618Z,73.21
2023-02-24T17:54:08.817Z,74.10
2023-02-24T17:56:36.895Z,78.52
2023-02-24T17:59:04.204Z,79.78
2023-02-24T18:01:33.670Z,76.16
2023-02-24T18:04:01.129Z,80.14
2023-02-24T18:06:28.575Z,79.01
2023-02-24T18:08:56.685Z,81.59
2023-02-24T18:11:24.166Z,80.40
2023-02-24T18:13:55.309Z,80.90
2023-02-24T18:16:23.313Z,80.33
2023-02-24T18:18:50.843Z,80.12
2023-02-24T18:21:18.009Z,78.84
2023-02-24T18:23:45.081Z,82.43
2023-02-24T18:26:20.973Z,84.75
2023-02-24T18:28:52.200Z,83.49
2023-02-24T18:31:20.676Z,86.17
2023-02-24T18:33:48.094Z,85.50
2023-02-24T18:36:17.743Z,83.86
2023-02-24T18:38:45.905Z,84.25
2023-02-24T18:41:18.752Z,85.75
2023-02-24T18:43:51.426Z,82.96
2023-02-24T18:46:21.443Z,83.64
2023-02-24T18:48:50.354Z,86.98
2023-02-24T18:51:20.096Z,85.15
2023-02-24T18:53:47.479Z,88.53
2023-02-24T18:56:23.544Z,88.77
2023-02-24T18:58:52.614Z,89.36
2023-02-24T19:01:22.677Z,88.77
2023-02-24T19:03:50.874Z,84.82
2023-02-24T19:06:21.947Z,85.88
2023-02-24T19:08:55.131Z,88.14
2023-02-24T19:11:21.837Z,89.84
2023-02-24T19:13:48.569Z,90.75
2023-02-24T19:16:54.760Z,89.89
2023-02-24T19:19:22.969Z,87.31
2023-02-24T19:21:52.656Z,89.39
2023-02-24T19:24:20.904Z,87.85
2023-02-24T19:26:48.623Z,89.28
2023-02-24T19:29:17.357Z,88.00
2023-02-24T19:31:46.161Z,85.95
2023-02-24T19:34:19.360Z,87.36
2023-02-24T19:36:46.570Z,87.91
2023-02-24T19:39:14.958Z,85.50
2023-02-24T19:41:57.455Z,88.61
2023-02-24T19:44:25.296Z,89.02
2023-02-24T19:47:05.008Z,88.94
2023-02-24T19:49:31.806Z,87.45
2023-02-24T19:52:01.418Z,90.81
2023-02-24T19:54:29.179Z,89.13
2023-02-24T19:56:58.068Z,86.03
2023-02-24T19:59:27.170Z,87.35
2023-02-24T20:02:05.919Z,88.03
2023-02-24T20:04:33.144Z,88.31
2023-02-24T20:07:01.218Z,89.02
2023-02-24T20:09:28.660Z,88.51
2023-02-24T20:11:59.437Z,88.52
2023-02-24T20:14:47.327Z,90.06
2023-02-24T20:17:15.314Z,88.66
2023-02-24T20:19:43.983Z,86.63
2023-02-24T20:22:11.021Z,85.53
2023-02-24T20:24:45.365Z,87.78
2023-02-24T20:27:12.917Z,85.63
2023-02-24T20:29:41.371Z,85.08
2023-02-24T20:32:08.676Z,85.11
2023-02-24T20:34:37.148Z,85.22
2023-02-24T20:37:22.782Z,83.91
2023-02-24T20:39:52.000Z,83.49
2023-02-24T20:42:27.327Z,85.00
2023-02-24T20:44:54.579Z,86.06
2023-02-24T20:47:23.890Z,86.17
2023-02-24T20:49:51.676Z,85.39
2023-02-24T20:52:26.066Z,83.50
2023-02-24T20:54:53.095Z,82.03
2023-02-24T20:57:33.521Z,80.15
2023-02-24T21:00:08.889Z,81.81
2023-02-24T21:02:37.408Z,81.18
2023-02-24T21:05:05.494Z,82.47
2023-02-24T21:07:32.875Z,81.82
2023-02-24T21:10:02.715Z,81.11
2023-02-24T21:12:29.624Z,83.26
2023-02-24T21:14:58.192Z,82.00
2023-02-24T21:17:25.394Z,80.25
2023-02-24T21:19:52.807Z,82.84
2023-02-24T21:22:31.404Z,83.16
2023-02-24T21:24:59.962Z,82.19
2023-02-24T21:27:29.292Z,82.56
2023-02-24T21:29:56.307Z,82.36
2023-02-24T21:32:23.805Z,81.03
2023-02-24T21:34:55.177Z,81.82
2023-02-24T21:37:22.562Z,81.13
2023-02-24T21:39:49.718Z,80.87
2023-02-24T21:42:30.370Z,79.92
2023-02-24T21:45:02.570Z,80.21
2023-02-24T21:47:33.149Z,82.05
2023-02-24T21:50:02.719Z,81.04
2023-02-24T21:52:30.386Z,77.95
2023-02-24T21:54:58.318Z,81.71
2023-02-24T21:57:25.505Z,81.66
2023-02-24T21:59:52.975Z,82.30
2023-02-24T22:02:21.036Z,80.33
2023-02-24T22:04:50.022Z,79.26
2023-02-24T22:07:17.548Z,79.94
2023-02-24T22:09:45.132Z,78.86
2023-02-24T22:12:12.525Z,79.66
2023-02-24T22:14:40.108Z,79.54
2023-02-24T22:17:07.734Z,79.71
2023-02-24T22:19:36.852Z,79.51
2023-02-24T22:22:04.164Z,80.12
2023-02-24T22:24:33.053Z,80.19
2023-02-24T22:27:03.069Z,81.11
2023-02-24T22:29:31.512Z,79.88
2023-02-24T22:31:59.281Z,80.50
2023-02-24T22:34:27.083Z,81.72
2023-02-24T22:36:56.648Z,82.19
2023-02-24T22:39:23.692Z,79.58
2023-02-24T22:41:51.739Z,80.18
2023-02-24T22:44:19.670Z,79.40
2023-02-24T22:46:47.739Z,77.58
2023-02-24T22:49:15.394Z,79.06
2023-02-24T22:51:42.629Z,78.01
2023-02-24T22:54:10.179Z,76.91
2023-02-24T22:56:38.196Z,78.46
2023-02-24T22:59:11.888Z,78.69
2023-02-24T23:01:39.888Z,78.34
2023-02-24T23:04:08.850Z,80.00
2023-02-24T23:06:41.947Z,80.68
2023-02-24T23:09:12.337Z,80.54
2023-02-24T23:11:43.568Z,79.48
2023-02-24T23:14:14.309Z,79.40
2023-02-24T23:16:42.470Z,78.79
2023-02-24T23:19:13.521Z,79.16
2023-02-24T23:21:41.701Z,82.05
2023-02-24T23:24:09.409Z,81.06
2023-02-24T23:26:42.669Z,80.34
2023-02-24T23:29:10.791Z,80.90
2023-02-24T23:31:41.263Z,81.82
2023-02-24T23:34:09.135Z,82.85
2023-02-24T23:36:37.812Z,82.54
2023-02-24T23:39:05.254Z,81.11
2023-02-24T23:41:37.001Z,82.47
2023-02-24T23:44:05.849Z,80.89
2023-02-24T23:46:33.717Z,80.57
2023-02-24T23:49:09.097Z,83.08
2023-02-24T23:51:47.457Z,82.02
2023-02-24T23:54:15.923Z,83.65
2023-02-24T23:56:43.013Z,83.62
2023-02-24T23:59:18.576Z,84.81
